LEZG/ZAZ METAR and TAF weather

Enter ICAO airport designator
Station Type Date Time Source
LEZG METAR 2019/06/17 05:30 UTC NOAA

LEZG 170530Z 07003KT CAVOK 18/10 Q1017


Station Type Date Time Source
LEZG Decoded METAR 2019/06/17 05:30 UTC NOAA

Zaragoza / Aeropuerto, Spain (LEZG) 41-40N 001-01W 258M
Jun 17, 2019 - 01:30 AM EDT / 2019.06.17 0530 UTC
Wind: from the ENE (070 degrees) at 3 MPH (3 KT):0
Visibility: greater than 7 mile(s):0
Temperature: 64 F (18 C)
Dew Point: 50 F (10 C)
Relative Humidity: 59%
Pressure (altimeter): 30.03 in. Hg (1017 hPa)
ob: LEZG 170530Z 07003KT CAVOK 18/10 Q1017
cycle: 5

Station Type Date Time Source
LEZG TAF 2019/06/17 06:27 UTC NOAA

TAF LEZG 170500Z 1706/1806 VRB03KT 9999 FEW040 TX35/1713Z TN17/1706Z
TEMPO 1706/1715 12008KT
BECMG 1716/1718 13010KT

Example: see airport list